sensor_id;sensor_type;location;lat;lon;timestamp;pressure;altitude;pressure_sealevel;temperature;humidity
70053;BME280;57398;52.032;4.376;2022-11-13T00:00:37;102989.28;;;5.11;nan
70053;BME280;57398;52.032;4.376;2022-11-13T00:03:06;102989.16;;;5.12;nan
70053;BME280;57398;52.032;4.376;2022-11-13T00:05:34;102988.88;;;5.06;nan
70053;BME280;57398;52.032;4.376;2022-11-13T00:08:02;102988.06;;;5.05;nan
70053;BME280;57398;52.032;4.376;2022-11-13T00:10:29;102979.22;;;4.98;nan
70053;BME280;57398;52.032;4.376;2022-11-13T00:12:57;102980.66;;;4.91;nan
70053;BME280;57398;52.032;4.376;2022-11-13T00:15:25;102979.16;;;4.88;nan
70053;BME280;57398;52.032;4.376;2022-11-13T00:17:52;102977.66;;;4.86;nan
70053;BME280;57398;52.032;4.376;2022-11-13T00:20:22;102970.88;;;4.85;nan
70053;BME280;57398;52.032;4.376;2022-11-13T00:22:50;102972.63;;;4.84;nan
70053;BME280;57398;52.032;4.376;2022-11-13T00:25:18;102961.91;;;4.79;nan
70053;BME280;57398;52.032;4.376;2022-11-13T00:27:46;102964.59;;;4.77;nan
70053;BME280;57398;52.032;4.376;2022-11-13T00:30:14;102966.59;;;4.74;nan
70053;BME280;57398;52.032;4.376;2022-11-13T00:32:44;102967.19;;;4.77;nan
70053;BME280;57398;52.032;4.376;2022-11-13T00:35:12;102943.44;;;4.74;nan
70053;BME280;57398;52.032;4.376;2022-11-13T00:37:41;102946.28;;;4.71;nan
70053;BME280;57398;52.032;4.376;2022-11-13T00:40:09;102942.47;;;4.65;nan
70053;BME280;57398;52.032;4.376;2022-11-13T00:42:37;102938.25;;;4.64;nan
70053;BME280;57398;52.032;4.376;2022-11-13T00:45:05;102939.19;;;4.63;nan
70053;BME280;57398;52.032;4.376;2022-11-13T00:47:34;102936.72;;;4.61;nan
70053;BME280;57398;52.032;4.376;2022-11-13T00:50:02;102941.50;;;4.66;nan
70053;BME280;57398;52.032;4.376;2022-11-13T00:52:30;102941.50;;;4.66;nan
70053;BME280;57398;52.032;4.376;2022-11-13T00:54:59;102934.22;;;4.71;nan
70053;BME280;57398;52.032;4.376;2022-11-13T00:57:26;102935.78;;;4.83;nan
70053;BME280;57398;52.032;4.376;2022-11-13T00:59:54;102933.31;;;5.13;nan
70053;BME280;57398;52.032;4.376;2022-11-13T01:02:22;102924.34;;;5.07;nan
70053;BME280;57398;52.032;4.376;2022-11-13T01:04:49;102924.16;;;4.99;nan
70053;BME280;57398;52.032;4.376;2022-11-13T01:07:17;102926.59;;;4.91;nan
70053;BME280;57398;52.032;4.376;2022-11-13T01:09:48;102925.59;;;4.82;nan
70053;BME280;57398;52.032;4.376;2022-11-13T01:12:18;102926.09;;;4.76;nan
70053;BME280;57398;52.032;4.376;2022-11-13T01:14:45;102923.28;;;4.79;nan
70053;BME280;57398;52.032;4.376;2022-11-13T01:17:13;102925.41;;;4.74;nan
70053;BME280;57398;52.032;4.376;2022-11-13T01:19:41;102927.19;;;4.73;nan
70053;BME280;57398;52.032;4.376;2022-11-13T01:22:08;102923.53;;;4.76;nan
70053;BME280;57398;52.032;4.376;2022-11-13T01:24:36;102912.81;;;4.71;nan
70053;BME280;57398;52.032;4.376;2022-11-13T01:27:04;102920.09;;;4.66;nan
70053;BME280;57398;52.032;4.376;2022-11-13T01:29:33;102913.94;;;4.57;nan
70053;BME280;57398;52.032;4.376;2022-11-13T01:32:00;102907.63;;;4.61;nan
70053;BME280;57398;52.032;4.376;2022-11-13T01:34:28;102906.41;;;4.65;nan
70053;BME280;57398;52.032;4.376;2022-11-13T01:36:56;102905.53;;;4.55;nan
70053;BME280;57398;52.032;4.376;2022-11-13T01:39:24;102910.41;;;4.58;nan
70053;BME280;57398;52.032;4.376;2022-11-13T01:41:51;102909.06;;;4.54;nan
70053;BME280;57398;52.032;4.376;2022-11-13T01:46:50;102899.91;;;4.40;nan
70053;BME280;57398;52.032;4.376;2022-11-13T01:49:25;102905.19;;;4.38;nan
70053;BME280;57398;52.032;4.376;2022-11-13T01:51:55;102900.03;;;4.38;nan
70053;BME280;57398;52.032;4.376;2022-11-13T01:56:54;102907.69;;;4.29;nan
70053;BME280;57398;52.032;4.376;2022-11-13T01:59:24;102898.59;;;4.25;nan
70053;BME280;57398;52.032;4.376;2022-11-13T02:01:54;102897.91;;;4.23;nan
70053;BME280;57398;52.032;4.376;2022-11-13T02:04:23;102898.72;;;4.23;nan
70053;BME280;57398;52.032;4.376;2022-11-13T02:06:54;102893.44;;;4.25;nan
70053;BME280;57398;52.032;4.376;2022-11-13T02:09:25;102886.47;;;4.36;nan
70053;BME280;57398;52.032;4.376;2022-11-13T02:11:53;102880.50;;;4.57;nan
70053;BME280;57398;52.032;4.376;2022-11-13T02:14:24;102884.44;;;4.61;nan
70053;BME280;57398;52.032;4.376;2022-11-13T02:16:56;102870.84;;;4.49;nan
70053;BME280;57398;52.032;4.376;2022-11-13T02:24:29;102875.69;;;4.43;nan
70053;BME280;57398;52.032;4.376;2022-11-13T02:27:02;102878.75;;;4.36;nan
70053;BME280;57398;52.032;4.376;2022-11-13T02:29:31;102880.19;;;4.50;nan
70053;BME280;57398;52.032;4.376;2022-11-13T02:31:59;102874.38;;;4.58;nan
70053;BME280;57398;52.032;4.376;2022-11-13T02:34:26;102874.69;;;4.65;nan
70053;BME280;57398;52.032;4.376;2022-11-13T02:36:55;102871.50;;;4.72;nan
70053;BME280;57398;52.032;4.376;2022-11-13T02:39:23;102857.63;;;4.64;nan
70053;BME280;57398;52.032;4.376;2022-11-13T02:41:52;102860.84;;;4.56;nan
70053;BME280;57398;52.032;4.376;2022-11-13T02:46:47;102866.16;;;4.64;nan
70053;BME280;57398;52.032;4.376;2022-11-13T02:49:15;102863.50;;;4.75;nan
70053;BME280;57398;52.032;4.376;2022-11-13T02:54:10;102853.88;;;4.77;nan
70053;BME280;57398;52.032;4.376;2022-11-13T02:59:11;102832.53;;;4.96;nan
70053;BME280;57398;52.032;4.376;2022-11-13T03:01:38;102836.59;;;4.99;nan
70053;BME280;57398;52.032;4.376;2022-11-13T03:04:06;102824.16;;;5.04;nan
70053;BME280;57398;52.032;4.376;2022-11-13T03:06:34;102824.41;;;5.01;nan
70053;BME280;57398;52.032;4.376;2022-11-13T03:09:01;102835.50;;;4.92;nan
70053;BME280;57398;52.032;4.376;2022-11-13T03:11:29;102824.38;;;4.81;nan
70053;BME280;57398;52.032;4.376;2022-11-13T03:13:57;102830.06;;;4.85;nan
70053;BME280;57398;52.032;4.376;2022-11-13T03:16:26;102821.09;;;4.79;nan
70053;BME280;57398;52.032;4.376;2022-11-13T03:18:54;102826.78;;;4.73;nan
70053;BME280;57398;52.032;4.376;2022-11-13T03:21:22;102824.47;;;4.70;nan
70053;BME280;57398;52.032;4.376;2022-11-13T03:23:52;102810.22;;;4.66;nan
70053;BME280;57398;52.032;4.376;2022-11-13T03:26:20;102808.16;;;4.60;nan
70053;BME280;57398;52.032;4.376;2022-11-13T03:28:49;102809.38;;;4.56;nan
70053;BME280;57398;52.032;4.376;2022-11-13T03:31:16;102814.34;;;4.48;nan
70053;BME280;57398;52.032;4.376;2022-11-13T03:33:45;102815.25;;;4.37;nan
70053;BME280;57398;52.032;4.376;2022-11-13T03:36:13;102809.09;;;4.28;nan
70053;BME280;57398;52.032;4.376;2022-11-13T03:38:41;102809.09;;;4.28;nan
70053;BME280;57398;52.032;4.376;2022-11-13T03:41:08;102801.22;;;4.20;nan
70053;BME280;57398;52.032;4.376;2022-11-13T03:43:36;102818.97;;;4.23;nan
70053;BME280;57398;52.032;4.376;2022-11-13T03:46:04;102814.09;;;4.20;nan
70053;BME280;57398;52.032;4.376;2022-11-13T03:48:32;102807.56;;;4.16;nan
70053;BME280;57398;52.032;4.376;2022-11-13T03:51:02;102815.66;;;4.11;nan
70053;BME280;57398;52.032;4.376;2022-11-13T03:55:57;102802.84;;;4.00;nan
70053;BME280;57398;52.032;4.376;2022-11-13T03:58:25;102807.88;;;4.02;nan
70053;BME280;57398;52.032;4.376;2022-11-13T04:00:54;102798.53;;;4.01;nan
70053;BME280;57398;52.032;4.376;2022-11-13T04:03:22;102809.13;;;4.07;nan
70053;BME280;57398;52.032;4.376;2022-11-13T04:05:50;102797.75;;;4.10;nan
70053;BME280;57398;52.032;4.376;2022-11-13T04:08:19;102803.47;;;4.13;nan
70053;BME280;57398;52.032;4.376;2022-11-13T04:10:47;102802.22;;;4.29;nan
70053;BME280;57398;52.032;4.376;2022-11-13T04:13:14;102805.22;;;4.34;nan
70053;BME280;57398;52.032;4.376;2022-11-13T04:15:42;102802.22;;;4.29;nan
70053;BME280;57398;52.032;4.376;2022-11-13T04:18:10;102800.16;;;4.23;nan
70053;BME280;57398;52.032;4.376;2022-11-13T04:20:38;102795.38;;;4.18;nan
70053;BME280;57398;52.032;4.376;2022-11-13T04:23:05;102799.34;;;4.22;nan
70053;BME280;57398;52.032;4.376;2022-11-13T04:25:34;102800.72;;;4.26;nan
70053;BME280;57398;52.032;4.376;2022-11-13T04:28:02;102795.19;;;4.31;nan
70053;BME280;57398;52.032;4.376;2022-11-13T04:30:30;102794.19;;;4.22;nan
70053;BME280;57398;52.032;4.376;2022-11-13T04:32:57;102796.19;;;4.18;nan
70053;BME280;57398;52.032;4.376;2022-11-13T04:35:25;102788.84;;;4.14;nan
70053;BME280;57398;52.032;4.376;2022-11-13T04:37:53;102788.34;;;4.20;nan
70053;BME280;57398;52.032;4.376;2022-11-13T04:40:20;102781.13;;;4.14;nan
70053;BME280;57398;52.032;4.376;2022-11-13T04:42:50;102766.34;;;4.06;nan
70053;BME280;57398;52.032;4.376;2022-11-13T04:45:18;102775.84;;;4.06;nan
70053;BME280;57398;52.032;4.376;2022-11-13T04:55:10;102780.41;;;4.02;nan
70053;BME280;57398;52.032;4.376;2022-11-13T04:57:38;102783.94;;;4.01;nan
70053;BME280;57398;52.032;4.376;2022-11-13T05:00:08;102773.34;;;3.94;nan
70053;BME280;57398;52.032;4.376;2022-11-13T05:02:36;102777.63;;;3.94;nan
70053;BME280;57398;52.032;4.376;2022-11-13T05:05:04;102775.63;;;3.97;nan
70053;BME280;57398;52.032;4.376;2022-11-13T05:07:32;102772.41;;;4.05;nan
70053;BME280;57398;52.032;4.376;2022-11-13T05:09:59;102770.16;;;4.12;nan
70053;BME280;57398;52.032;4.376;2022-11-13T05:14:54;102757.16;;;4.44;nan
70053;BME280;57398;52.032;4.376;2022-11-13T05:17:24;102746.53;;;4.58;nan
70053;BME280;57398;52.032;4.376;2022-11-13T05:19:51;102762.00;;;4.68;nan
70053;BME280;57398;52.032;4.376;2022-11-13T05:22:19;102751.13;;;4.65;nan
70053;BME280;57398;52.032;4.376;2022-11-13T13:17:47;102275.09;;;11.72;nan
70053;BME280;57398;52.032;4.376;2022-11-13T13:20:30;102275.53;;;11.76;nan
70053;BME280;57398;52.032;4.376;2022-11-13T13:23:00;102276.28;;;11.70;nan
70053;BME280;57398;52.032;4.376;2022-11-13T13:28:15;102266.78;;;11.56;nan
70053;BME280;57398;52.032;4.376;2022-11-13T13:30:52;102269.41;;;11.56;nan
70053;BME280;57398;52.032;4.376;2022-11-13T13:33:24;102263.06;;;11.65;nan
70053;BME280;57398;52.032;4.376;2022-11-13T13:36:03;102257.47;;;11.68;nan
70053;BME280;57398;52.032;4.376;2022-11-13T13:38:41;102256.09;;;11.72;nan
70053;BME280;57398;52.032;4.376;2022-11-13T13:41:27;102252.91;;;11.77;nan
70053;BME280;57398;52.032;4.376;2022-11-13T13:44:15;102247.75;;;11.83;nan
70053;BME280;57398;52.032;4.376;2022-11-13T13:46:48;102255.81;;;11.88;nan
70053;BME280;57398;52.032;4.376;2022-11-13T13:49:20;102245.56;;;11.87;nan
70053;BME280;57398;52.032;4.376;2022-11-13T13:51:51;102242.53;;;11.83;nan
70053;BME280;57398;52.032;4.376;2022-11-13T13:56:50;102253.13;;;11.75;nan
70053;BME280;57398;52.032;4.376;2022-11-13T13:59:20;102255.09;;;11.73;nan
70053;BME280;57398;52.032;4.376;2022-11-13T14:01:53;102257.13;;;11.78;nan
70053;BME280;57398;52.032;4.376;2022-11-13T14:04:25;102258.34;;;11.82;nan
70053;BME280;57398;52.032;4.376;2022-11-13T14:06:54;102254.31;;;11.79;nan
70053;BME280;57398;52.032;4.376;2022-11-13T14:09:23;102244.97;;;11.85;nan
70053;BME280;57398;52.032;4.376;2022-11-13T14:12:00;102256.44;;;11.90;nan
70053;BME280;57398;52.032;4.376;2022-11-13T14:14:37;102239.53;;;11.86;nan
70053;BME280;57398;52.032;4.376;2022-11-13T14:17:08;102243.16;;;11.85;nan
70053;BME280;57398;52.032;4.376;2022-11-13T14:19:36;102243.28;;;11.77;nan
70053;BME280;57398;52.032;4.376;2022-11-13T14:22:04;102230.28;;;11.77;nan
70053;BME280;57398;52.032;4.376;2022-11-13T14:24:38;102232.69;;;11.79;nan
70053;BME280;57398;52.032;4.376;2022-11-13T14:27:12;102238.91;;;11.78;nan
70053;BME280;57398;52.032;4.376;2022-11-13T14:29:45;102238.25;;;11.69;nan
70053;BME280;57398;52.032;4.376;2022-11-13T14:34:44;102227.56;;;11.57;nan
70053;BME280;57398;52.032;4.376;2022-11-13T14:37:21;102233.06;;;11.41;nan
70053;BME280;57398;52.032;4.376;2022-11-13T14:39:50;102238.41;;;11.32;nan
70053;BME280;57398;52.032;4.376;2022-11-13T14:42:22;102226.09;;;11.20;nan
70053;BME280;57398;52.032;4.376;2022-11-13T14:44:52;102240.28;;;11.17;nan
70053;BME280;57398;52.032;4.376;2022-11-13T14:47:22;102225.06;;;11.14;nan
70053;BME280;57398;52.032;4.376;2022-11-13T14:52:23;102226.22;;;11.11;nan
70053;BME280;57398;52.032;4.376;2022-11-13T14:55:02;102228.22;;;11.09;nan
70053;BME280;57398;52.032;4.376;2022-11-13T14:57:49;102228.81;;;10.90;nan
70053;BME280;57398;52.032;4.376;2022-11-13T15:00:24;102231.88;;;10.94;nan
70053;BME280;57398;52.032;4.376;2022-11-13T15:02:52;102233.28;;;10.96;nan
70053;BME280;57398;52.032;4.376;2022-11-13T15:05:20;102218.63;;;10.88;nan
70053;BME280;57398;52.032;4.376;2022-11-13T15:07:51;102216.78;;;10.82;nan
70053;BME280;57398;52.032;4.376;2022-11-13T15:10:21;102221.50;;;10.72;nan
70053;BME280;57398;52.032;4.376;2022-11-13T15:12:51;102220.53;;;10.58;nan
70053;BME280;57398;52.032;4.376;2022-11-13T15:15:20;102216.94;;;10.38;nan
70053;BME280;57398;52.032;4.376;2022-11-13T15:17:50;102224.88;;;10.21;nan
70053;BME280;57398;52.032;4.376;2022-11-13T15:20:22;102223.09;;;10.07;nan
70053;BME280;57398;52.032;4.376;2022-11-13T15:22:51;102216.50;;;9.90;nan
70053;BME280;57398;52.032;4.376;2022-11-13T15:27:48;102218.34;;;9.66;nan
70053;BME280;57398;52.032;4.376;2022-11-13T15:32:45;102218.88;;;9.47;nan
70053;BME280;57398;52.032;4.376;2022-11-13T15:35:16;102224.78;;;9.40;nan
70053;BME280;57398;52.032;4.376;2022-11-13T15:37:44;102225.56;;;9.26;nan
70053;BME280;57398;52.032;4.376;2022-11-13T15:40:12;102224.00;;;9.17;nan
70053;BME280;57398;52.032;4.376;2022-11-13T15:42:40;102232.19;;;9.06;nan
70053;BME280;57398;52.032;4.376;2022-11-13T15:45:12;102213.75;;;9.00;nan
70053;BME280;57398;52.032;4.376;2022-11-13T15:47:42;102213.34;;;9.12;nan
70053;BME280;57398;52.032;4.376;2022-11-13T15:50:09;102209.66;;;9.06;nan
70053;BME280;57398;52.032;4.376;2022-11-13T15:52:42;102212.88;;;9.08;nan
70053;BME280;57398;52.032;4.376;2022-11-13T15:55:24;102210.19;;;9.01;nan
70053;BME280;57398;52.032;4.376;2022-11-13T15:57:53;102208.19;;;8.89;nan
70053;BME280;57398;52.032;4.376;2022-11-13T16:00:23;102213.47;;;8.72;nan
70053;BME280;57398;52.032;4.376;2022-11-13T16:12:46;102211.34;;;7.97;nan
70053;BME280;57398;52.032;4.376;2022-11-13T16:15:14;102223.69;;;7.87;nan
70053;BME280;57398;52.032;4.376;2022-11-13T16:17:46;102214.19;;;7.71;nan
70053;BME280;57398;52.032;4.376;2022-11-13T16:20:16;102212.44;;;7.63;nan
70053;BME280;57398;52.032;4.376;2022-11-13T16:22:44;102205.50;;;7.47;nan
70053;BME280;57398;52.032;4.376;2022-11-13T16:25:13;102211.81;;;7.37;nan
70053;BME280;57398;52.032;4.376;2022-11-13T16:27:42;102213.91;;;7.25;nan
70053;BME280;57398;52.032;4.376;2022-11-13T16:30:14;102206.00;;;7.10;nan
70053;BME280;57398;52.032;4.376;2022-11-13T16:32:42;102198.59;;;6.99;nan
70053;BME280;57398;52.032;4.376;2022-11-13T16:35:13;102208.75;;;6.92;nan
70053;BME280;57398;52.032;4.376;2022-11-13T16:37:42;102197.28;;;6.78;nan
70053;BME280;57398;52.032;4.376;2022-11-13T16:40:19;102198.22;;;6.69;nan
70053;BME280;57398;52.032;4.376;2022-11-13T16:42:47;102192.69;;;6.64;nan
70053;BME280;57398;52.032;4.376;2022-11-13T16:45:14;102199.31;;;6.58;nan
70053;BME280;57398;52.032;4.376;2022-11-13T16:47:42;102193.19;;;6.51;nan
70053;BME280;57398;52.032;4.376;2022-11-13T16:50:12;102195.56;;;6.44;nan
70053;BME280;57398;52.032;4.376;2022-11-13T16:55:09;102184.09;;;6.31;nan
70053;BME280;57398;52.032;4.376;2022-11-13T16:57:37;102185.22;;;6.28;nan
70053;BME280;57398;52.032;4.376;2022-11-13T17:00:07;102186.00;;;6.28;nan
70053;BME280;57398;52.032;4.376;2022-11-13T17:02:37;102187.75;;;6.20;nan
70053;BME280;57398;52.032;4.376;2022-11-13T17:05:05;102183.25;;;6.22;nan
70053;BME280;57398;52.032;4.376;2022-11-13T17:10:02;102169.06;;;6.26;nan
70053;BME280;57398;52.032;4.376;2022-11-13T17:12:50;102168.75;;;6.21;nan
70053;BME280;57398;52.032;4.376;2022-11-13T17:15:19;102170.66;;;6.19;nan
70053;BME280;57398;52.032;4.376;2022-11-13T17:17:47;102170.13;;;6.07;nan
70053;BME280;57398;52.032;4.376;2022-11-13T17:20:15;102161.38;;;6.00;nan
70053;BME280;57398;52.032;4.376;2022-11-13T17:22:44;102169.88;;;5.92;nan
70053;BME280;57398;52.032;4.376;2022-11-13T17:25:16;102157.44;;;5.87;nan
70053;BME280;57398;52.032;4.376;2022-11-13T17:27:44;102151.94;;;5.82;nan
70053;BME280;57398;52.032;4.376;2022-11-13T17:30:12;102165.97;;;5.88;nan
70053;BME280;57398;52.032;4.376;2022-11-13T17:35:10;102151.69;;;5.67;nan
70053;BME280;57398;52.032;4.376;2022-11-13T17:37:38;102154.59;;;5.64;nan
70053;BME280;57398;52.032;4.376;2022-11-13T17:40:06;102158.75;;;5.57;nan
70053;BME280;57398;52.032;4.376;2022-11-13T17:42:36;102156.81;;;5.59;nan
70053;BME280;57398;52.032;4.376;2022-11-13T17:45:05;102149.22;;;5.58;nan
70053;BME280;57398;52.032;4.376;2022-11-13T17:47:33;102152.13;;;5.55;nan
70053;BME280;57398;52.032;4.376;2022-11-13T17:50:01;102154.19;;;5.51;nan
70053;BME280;57398;52.032;4.376;2022-11-13T17:52:32;102141.84;;;5.37;nan
70053;BME280;57398;52.032;4.376;2022-11-13T17:55:00;102146.69;;;5.40;nan
70053;BME280;57398;52.032;4.376;2022-11-13T17:57:31;102149.59;;;5.37;nan
70053;BME280;57398;52.032;4.376;2022-11-13T18:00:00;102149.97;;;5.24;nan
70053;BME280;57398;52.032;4.376;2022-11-13T18:02:28;102145.00;;;5.22;nan
70053;BME280;57398;52.032;4.376;2022-11-13T18:04:55;102145.22;;;5.11;nan
70053;BME280;57398;52.032;4.376;2022-11-13T18:07:26;102154.50;;;5.04;nan
70053;BME280;57398;52.032;4.376;2022-11-13T18:09:54;102149.38;;;5.04;nan
70053;BME280;57398;52.032;4.376;2022-11-13T18:12:22;102153.44;;;5.15;nan
70053;BME280;57398;52.032;4.376;2022-11-13T18:14:49;102155.09;;;5.16;nan
70053;BME280;57398;52.032;4.376;2022-11-13T18:17:21;102152.44;;;5.08;nan
70053;BME280;57398;52.032;4.376;2022-11-13T18:22:24;102141.56;;;4.96;nan
70053;BME280;57398;52.032;4.376;2022-11-13T18:24:52;102150.53;;;4.92;nan
70053;BME280;57398;52.032;4.376;2022-11-13T18:27:20;102152.75;;;4.87;nan
70053;BME280;57398;52.032;4.376;2022-11-13T18:29:48;102149.28;;;4.78;nan
70053;BME280;57398;52.032;4.376;2022-11-13T18:32:15;102144.09;;;4.70;nan
70053;BME280;57398;52.032;4.376;2022-11-13T18:34:44;102149.28;;;4.60;nan
70053;BME280;57398;52.032;4.376;2022-11-13T18:37:12;102148.47;;;4.59;nan
70053;BME280;57398;52.032;4.376;2022-11-13T18:39:39;102150.16;;;4.51;nan
70053;BME280;57398;52.032;4.376;2022-11-13T18:42:07;102147.75;;;4.49;nan
70053;BME280;57398;52.032;4.376;2022-11-13T18:44:35;102140.03;;;4.49;nan
70053;BME280;57398;52.032;4.376;2022-11-13T18:47:03;102139.19;;;4.49;nan
70053;BME280;57398;52.032;4.376;2022-11-13T18:49:30;102132.97;;;4.51;nan
70053;BME280;57398;52.032;4.376;2022-11-13T18:51:59;102137.69;;;4.56;nan
70053;BME280;57398;52.032;4.376;2022-11-13T18:54:27;102137.91;;;4.45;nan
70053;BME280;57398;52.032;4.376;2022-11-13T18:56:55;102128.53;;;4.44;nan
70053;BME280;57398;52.032;4.376;2022-11-13T18:59:22;102126.53;;;4.37;nan
70053;BME280;57398;52.032;4.376;2022-11-13T19:01:50;102126.09;;;4.42;nan
70053;BME280;57398;52.032;4.376;2022-11-13T19:04:18;102124.06;;;4.64;nan
70053;BME280;57398;52.032;4.376;2022-11-13T19:09:18;102111.63;;;4.41;nan
70053;BME280;57398;52.032;4.376;2022-11-13T19:11:46;102117.78;;;4.30;nan
70053;BME280;57398;52.032;4.376;2022-11-13T19:16:43;102110.19;;;4.11;nan
70053;BME280;57398;52.032;4.376;2022-11-13T19:19:15;102119.00;;;4.08;nan
70053;BME280;57398;52.032;4.376;2022-11-13T19:21:43;102115.78;;;4.06;nan
70053;BME280;57398;52.032;4.376;2022-11-13T19:24:11;102117.00;;;4.02;nan
70053;BME280;57398;52.032;4.376;2022-11-13T19:26:42;102116.19;;;4.02;nan
70053;BME280;57398;52.032;4.376;2022-11-13T19:29:10;102121.91;;;3.95;nan
70053;BME280;57398;52.032;4.376;2022-11-13T19:31:38;102114.31;;;3.94;nan
70053;BME280;57398;52.032;4.376;2022-11-13T19:34:06;102111.13;;;3.92;nan
70053;BME280;57398;52.032;4.376;2022-11-13T19:36:35;102103.53;;;3.90;nan
70053;BME280;57398;52.032;4.376;2022-11-13T19:39:03;102108.38;;;3.93;nan
70053;BME280;57398;52.032;4.376;2022-11-13T19:46:28;102086.22;;;3.92;nan
70053;BME280;57398;52.032;4.376;2022-11-13T19:48:57;102092.16;;;3.93;nan
70053;BME280;57398;52.032;4.376;2022-11-13T19:51:25;102087.06;;;3.83;nan
70053;BME280;57398;52.032;4.376;2022-11-13T19:56:22;102073.31;;;3.74;nan
70053;BME280;57398;52.032;4.376;2022-11-13T19:58:50;102079.84;;;3.69;nan
70053;BME280;57398;52.032;4.376;2022-11-13T20:06:19;102083.75;;;3.63;nan
70053;BME280;57398;52.032;4.376;2022-11-13T20:08:46;102077.28;;;3.59;nan
70053;BME280;57398;52.032;4.376;2022-11-13T20:11:14;102077.56;;;3.56;nan
70053;BME280;57398;52.032;4.376;2022-11-13T20:13:42;102073.25;;;3.56;nan
70053;BME280;57398;52.032;4.376;2022-11-13T20:16:12;102083.16;;;3.79;nan
70053;BME280;57398;52.032;4.376;2022-11-13T20:18:42;102074.59;;;3.88;nan
70053;BME280;57398;52.032;4.376;2022-11-13T20:21:10;102069.75;;;4.03;nan
70053;BME280;57398;52.032;4.376;2022-11-13T20:23:38;102070.28;;;4.07;nan
70053;BME280;57398;52.032;4.376;2022-11-13T20:26:07;102071.25;;;4.06;nan
70053;BME280;57398;52.032;4.376;2022-11-13T20:28:35;102070.59;;;4.04;nan
70053;BME280;57398;52.032;4.376;2022-11-13T20:36:01;102056.34;;;3.82;nan
70053;BME280;57398;52.032;4.376;2022-11-13T20:40:57;102054.03;;;3.88;nan
70053;BME280;57398;52.032;4.376;2022-11-13T20:43:29;102044.25;;;3.74;nan
70053;BME280;57398;52.032;4.376;2022-11-13T20:46:01;102036.78;;;3.71;nan
70053;BME280;57398;52.032;4.376;2022-11-13T20:48:29;102033.41;;;3.70;nan
70053;BME280;57398;52.032;4.376;2022-11-13T20:51:05;102039.09;;;3.74;nan
70053;BME280;57398;52.032;4.376;2022-11-13T20:56:00;102027.47;;;3.70;nan
70053;BME280;57398;52.032;4.376;2022-11-13T20:58:28;102038.06;;;3.57;nan
70053;BME280;57398;52.032;4.376;2022-11-13T21:03:27;102020.94;;;3.48;nan
70053;BME280;57398;52.032;4.376;2022-11-13T21:05:55;102030.03;;;3.42;nan
70053;BME280;57398;52.032;4.376;2022-11-13T21:08:24;102013.28;;;3.38;nan
70053;BME280;57398;52.032;4.376;2022-11-13T21:10:53;102025.19;;;3.39;nan
70053;BME280;57398;52.032;4.376;2022-11-13T21:13:20;102005.88;;;3.35;nan
70053;BME280;57398;52.032;4.376;2022-11-13T21:18:15;102000.78;;;3.25;nan
70053;BME280;57398;52.032;4.376;2022-11-13T21:20:43;101987.41;;;3.22;nan
70053;BME280;57398;52.032;4.376;2022-11-13T21:23:11;101996.03;;;3.21;nan
70053;BME280;57398;52.032;4.376;2022-11-13T21:25:40;101994.06;;;3.14;nan
70053;BME280;57398;52.032;4.376;2022-11-13T21:28:07;101986.34;;;3.14;nan
70053;BME280;57398;52.032;4.376;2022-11-13T21:30:35;101990.16;;;3.10;nan
70053;BME280;57398;52.032;4.376;2022-11-13T21:33:03;101991.13;;;3.09;nan
70053;BME280;57398;52.032;4.376;2022-11-13T21:35:31;101992.47;;;3.04;nan
70053;BME280;57398;52.032;4.376;2022-11-13T21:40:30;101976.13;;;2.95;nan
70053;BME280;57398;52.032;4.376;2022-11-13T21:42:59;101974.81;;;2.91;nan
70053;BME280;57398;52.032;4.376;2022-11-13T21:45:26;101983.84;;;2.95;nan
70053;BME280;57398;52.032;4.376;2022-11-13T21:47:54;101976.56;;;2.90;nan
70053;BME280;57398;52.032;4.376;2022-11-13T21:50:21;101981.16;;;2.87;nan
70053;BME280;57398;52.032;4.376;2022-11-13T21:52:49;101958.34;;;2.84;nan
70053;BME280;57398;52.032;4.376;2022-11-13T21:55:17;101952.03;;;2.78;nan
70053;BME280;57398;52.032;4.376;2022-11-13T22:00:14;101964.19;;;2.76;nan
70053;BME280;57398;52.032;4.376;2022-11-13T22:02:43;101960.13;;;2.73;nan
70053;BME280;57398;52.032;4.376;2022-11-13T22:05:10;101948.25;;;2.72;nan
70053;BME280;57398;52.032;4.376;2022-11-13T22:10:06;101948.25;;;2.72;nan
70053;BME280;57398;52.032;4.376;2022-11-13T22:17:31;101943.84;;;2.55;nan
70053;BME280;57398;52.032;4.376;2022-11-13T22:19:58;101937.50;;;2.59;nan
70053;BME280;57398;52.032;4.376;2022-11-13T22:22:26;101940.97;;;2.58;nan
70053;BME280;57398;52.032;4.376;2022-11-13T22:24:54;101941.56;;;2.52;nan
70053;BME280;57398;52.032;4.376;2022-11-13T22:27:21;101936.97;;;2.46;nan
70053;BME280;57398;52.032;4.376;2022-11-13T22:29:49;101930.63;;;2.40;nan
70053;BME280;57398;52.032;4.376;2022-11-13T22:32:17;101947.09;;;2.38;nan
70053;BME280;57398;52.032;4.376;2022-11-13T22:34:46;101937.78;;;2.37;nan
70053;BME280;57398;52.032;4.376;2022-11-13T22:37:13;101937.41;;;2.32;nan
70053;BME280;57398;52.032;4.376;2022-11-13T22:39:41;101940.38;;;2.27;nan
70053;BME280;57398;52.032;4.376;2022-11-13T22:42:09;101939.16;;;2.21;nan
70053;BME280;57398;52.032;4.376;2022-11-13T22:44:36;101940.22;;;2.19;nan
70053;BME280;57398;52.032;4.376;2022-11-13T22:47:20;101932.41;;;2.20;nan
70053;BME280;57398;52.032;4.376;2022-11-13T22:49:49;101925.94;;;2.16;nan
70053;BME280;57398;52.032;4.376;2022-11-13T22:52:17;101921.59;;;2.17;nan
70053;BME280;57398;52.032;4.376;2022-11-13T22:57:12;101916.47;;;2.17;nan
70053;BME280;57398;52.032;4.376;2022-11-13T22:59:39;101918.66;;;2.12;nan
70053;BME280;57398;52.032;4.376;2022-11-13T23:02:07;101910.41;;;2.08;nan
70053;BME280;57398;52.032;4.376;2022-11-13T23:04:34;101912.84;;;2.09;nan
70053;BME280;57398;52.032;4.376;2022-11-13T23:07:03;101899.22;;;2.09;nan
70053;BME280;57398;52.032;4.376;2022-11-13T23:09:31;101903.16;;;2.13;nan
70053;BME280;57398;52.032;4.376;2022-11-13T23:11:59;101906.63;;;2.12;nan
70053;BME280;57398;52.032;4.376;2022-11-13T23:16:54;101882.63;;;2.03;nan